Terminal Aerodrome Forecast
Issued by NWS

Home | Current Version | Previous Version | Text Only | Print | Product List | Glossary On
Versions: 1 2 3 4 5 6 7 8 9 10 11 12 13 14 15
285
FTUS43 KAPX 291120
TAFPLN
TAF
KPLN 291120Z 2912/3012 00000KT P6SM SCT120 BKN200
     FM291500 05007KT P6SM SCT060 OVC120
     FM300000 00000KT P6SM SCT120 SCT220=

USA.gov is the U.S. government's official web portal to all federal, state and local government web resources and services.